Time;durP1;ratioP1;P1;durP2;ratioP2;P2;SDS_P1;SDS_P2;PMS_P1;PMS_P2;Temp;Humidity;BMP_temperature;BMP_pressure;BME280_temperature;BME280_humidity;BME280_pressure;Samples;Min_cycle;Max_cycle;Signal;HPM_P1;HPM_P2
2022/01/29 00:00:59;;;;;;;;;19.00;14.00;;;;;;;;6328508;22;28298;-81
2022/01/29 00:03:27;;;;;;;;;16.50;13.50;;;;;;;;6329989;22;28318;-82
2022/01/29 00:05:53;;;;;;;;;19.25;14.00;;;;;;;;6299370;22;28279;-82
2022/01/29 00:08:19;;;;;;;;;22.00;15.00;;;;;;;;6328049;22;28472;-81
2022/01/29 00:10:47;;;;;;;;;19.75;13.00;;;;;;;;6300781;22;28299;-82
2022/01/29 00:13:12;;;;;;;;;15.00;12.25;;;;;;;;6302962;22;28405;-82
2022/01/29 00:15:37;;;;;;;;;17.25;15.50;;;;;;;;6333129;22;28519;-82
2022/01/29 00:18:02;;;;;;;;;15.67;14.00;;;;;;;;6330764;22;28478;-81
2022/01/29 00:20:28;;;;;;;;;16.00;13.50;;;;;;;;6327603;22;28425;-81
2022/01/29 00:22:53;;;;;;;;;14.50;11.75;;;;;;;;6329738;22;28453;-81
2022/01/29 00:25:18;;;;;;;;;20.67;15.00;;;;;;;;6328267;22;28378;-82
2022/01/29 00:27:43;;;;;;;;;16.75;12.75;;;;;;;;6327203;22;28422;-81
2022/01/29 00:30:13;;;;;;;;;15.67;13.00;;;;;;;;6327894;22;28515;-82
2022/01/29 00:32:39;;;;;;;;;14.00;13.25;;;;;;;;6329561;22;28321;-82
2022/01/29 00:35:05;;;;;;;;;17.75;10.50;;;;;;;;6329615;22;28504;-81
2022/01/29 00:37:30;;;;;;;;;13.50;13.00;;;;;;;;6328954;22;28458;-81
2022/01/29 00:39:55;;;;;;;;;13.67;10.67;;;;;;;;6328612;22;28326;-82
2022/01/29 00:42:21;;;;;;;;;14.67;13.00;;;;;;;;6301528;22;28346;-82
2022/01/29 00:44:46;;;;;;;;;19.00;13.25;;;;;;;;6300088;22;28545;-81
2022/01/29 00:47:12;;;;;;;;;8.25;6.00;;;;;;;;6328228;22;28662;-82
2022/01/29 00:49:37;;;;;;;;;16.50;14.50;;;;;;;;6327376;22;28414;-82
2022/01/29 00:52:03;;;;;;;;;21.67;17.33;;;;;;;;6328093;22;28444;-82
2022/01/29 00:54:28;;;;;;;;;14.75;10.75;;;;;;;;6328287;22;28389;-82
2022/01/29 00:56:54;;;;;;;;;18.00;13.00;;;;;;;;6301385;22;30084;-82
2022/01/29 00:59:19;;;;;;;;;14.33;14.00;;;;;;;;6328803;22;28482;-82
2022/01/29 01:01:44;;;;;;;;;22.25;15.75;;;;;;;;6301007;22;28422;-82
2022/01/29 01:04:09;;;;;;;;;19.00;17.67;;;;;;;;6301119;22;28408;-82
2022/01/29 01:06:35;;;;;;;;;18.00;11.33;;;;;;;;6327588;22;29518;-82
2022/01/29 01:09:00;;;;;;;;;17.50;14.25;;;;;;;;6327413;22;29219;-82
2022/01/29 01:11:25;;;;;;;;;20.33;14.67;;;;;;;;6329226;22;28528;-82
2022/01/29 01:13:50;;;;;;;;;20.50;14.00;;;;;;;;6329321;22;28345;-82
2022/01/29 01:16:16;;;;;;;;;12.00;12.00;;;;;;;;6327927;22;28451;-82
2022/01/29 01:18:41;;;;;;;;;20.50;14.50;;;;;;;;6301760;22;28383;-82
2022/01/29 01:21:06;;;;;;;;;19.33;14.00;;;;;;;;6330062;22;28458;-82
2022/01/29 01:23:31;;;;;;;;;18.50;13.00;;;;;;;;6330460;22;28365;-82
2022/01/29 01:25:58;;;;;;;;;21.33;16.33;;;;;;;;6329238;22;28399;-82
2022/01/29 01:28:23;;;;;;;;;17.25;13.00;;;;;;;;6300595;22;28719;-82
2022/01/29 01:30:50;;;;;;;;;25.75;13.00;;;;;;;;6328314;22;28299;-82
2022/01/29 01:33:15;;;;;;;;;19.50;15.00;;;;;;;;6300716;22;29325;-82
2022/01/29 01:35:46;;;;;;;;;17.00;13.00;;;;;;;;6329542;22;29056;-82
2022/01/29 01:38:22;;;;;;;;;19.25;17.75;;;;;;;;6330045;22;28468;-82
2022/01/29 01:40:53;;;;;;;;;19.25;14.25;;;;;;;;6301985;22;28221;-82
2022/01/29 01:43:18;;;;;;;;;13.50;12.50;;;;;;;;6330154;22;28535;-82
2022/01/29 01:45:43;;;;;;;;;16.33;13.00;;;;;;;;6329135;22;28642;-82
2022/01/29 01:48:08;;;;;;;;;19.00;14.00;;;;;;;;6298122;22;28482;-82
2022/01/29 01:50:34;;;;;;;;;17.00;11.33;;;;;;;;6327969;22;28360;-83
2022/01/29 01:53:00;;;;;;;;;16.50;13.25;;;;;;;;6302181;22;28737;-82
2022/01/29 01:55:25;;;;;;;;;16.50;14.00;;;;;;;;6301973;22;29842;-82
2022/01/29 01:57:52;;;;;;;;;20.75;15.50;;;;;;;;6301863;22;28697;-82
2022/01/29 02:00:17;;;;;;;;;19.00;15.00;;;;;;;;6329880;22;28256;-82
2022/01/29 02:02:42;;;;;;;;;18.25;13.25;;;;;;;;6330205;22;28246;-83
2022/01/29 02:05:09;;;;;;;;;25.33;18.33;;;;;;;;6301537;22;29618;-82
2022/01/29 02:07:35;;;;;;;;;20.75;17.50;;;;;;;;6328792;22;28368;-80
2022/01/29 02:10:01;;;;;;;;;14.00;13.50;;;;;;;;6301224;22;28362;-80
2022/01/29 02:12:29;;;;;;;;;16.00;14.25;;;;;;;;6330326;22;28290;-80
2022/01/29 02:14:59;;;;;;;;;25.50;15.50;;;;;;;;6300783;22;30962;-80
2022/01/29 02:17:24;;;;;;;;;17.25;14.00;;;;;;;;6329143;22;28613;-80
2022/01/29 02:19:50;;;;;;;;;19.67;13.00;;;;;;;;6301168;22;28276;-80
2022/01/29 02:22:15;;;;;;;;;22.75;12.75;;;;;;;;6301685;22;28647;-80
2022/01/29 02:24:40;;;;;;;;;16.00;12.00;;;;;;;;6302091;22;28436;-81
2022/01/29 02:27:05;;;;;;;;;21.25;14.00;;;;;;;;6329005;22;28235;-80
2022/01/29 02:29:34;;;;;;;;;17.33;17.33;;;;;;;;6328490;22;28206;-80
2022/01/29 02:32:00;;;;;;;;;17.50;13.75;;;;;;;;6329463;22;28294;-80
2022/01/29 02:34:25;;;;;;;;;18.50;13.50;;;;;;;;6329882;22;29055;-80
2022/01/29 02:36:54;;;;;;;;;19.00;14.25;;;;;;;;6329442;22;28394;-80
2022/01/29 02:39:20;;;;;;;;;19.75;13.00;;;;;;;;6329123;22;28258;-80
2022/01/29 02:41:46;;;;;;;;;22.50;15.25;;;;;;;;6329874;22;28213;-81
2022/01/29 02:44:15;;;;;;;;;22.25;14.50;;;;;;;;6302609;22;29738;-81
2022/01/29 02:49:12;;;;;;;;;20.75;15.25;;;;;;;;6329170;22;28342;-81
2022/01/29 02:51:43;;;;;;;;;17.00;13.00;;;;;;;;6330447;22;28357;-80
2022/01/29 02:54:08;;;;;;;;;14.00;13.50;;;;;;;;6330728;22;28251;-81
2022/01/29 02:56:33;;;;;;;;;17.50;11.25;;;;;;;;6329826;22;28279;-81
2022/01/29 02:58:58;;;;;;;;;17.00;12.00;;;;;;;;6328797;22;28390;-81
2022/01/29 03:01:24;;;;;;;;;14.00;10.67;;;;;;;;6329450;22;28250;-81
2022/01/29 03:03:49;;;;;;;;;13.00;13.00;;;;;;;;6329289;22;28311;-81
2022/01/29 03:06:14;;;;;;;;;18.00;12.25;;;;;;;;6328690;22;28290;-81
2022/01/29 03:08:39;;;;;;;;;20.33;12.00;;;;;;;;6329814;22;28253;-81
2022/01/29 03:11:05;;;;;;;;;15.00;11.25;;;;;;;;6329010;22;28207;-81
2022/01/29 03:13:30;;;;;;;;;18.25;10.50;;;;;;;;6328768;22;29333;-81
2022/01/29 03:15:55;;;;;;;;;13.00;12.00;;;;;;;;6300406;22;29291;-81
2022/01/29 03:18:20;;;;;;;;;14.00;14.00;;;;;;;;6330126;22;28175;-81
2022/01/29 03:20:46;;;;;;;;;12.33;7.33;;;;;;;;6302448;22;29272;-81
2022/01/29 03:23:13;;;;;;;;;16.33;10.33;;;;;;;;6333043;22;28572;-80
2022/01/29 03:25:38;;;;;;;;;15.50;11.50;;;;;;;;6333242;22;28462;-81
2022/01/29 03:28:04;;;;;;;;;14.00;10.50;;;;;;;;6301722;22;28361;-81
2022/01/29 03:30:29;;;;;;;;;15.67;13.33;;;;;;;;6329091;22;28258;-81
2022/01/29 03:32:54;;;;;;;;;13.75;11.50;;;;;;;;6300934;22;29881;-81
2022/01/29 03:35:19;;;;;;;;;12.00;11.50;;;;;;;;6301039;22;28634;-81
2022/01/29 03:37:45;;;;;;;;;18.50;11.50;;;;;;;;6329758;22;28314;-81
2022/01/29 03:40:10;;;;;;;;;12.75;10.25;;;;;;;;6329221;22;28287;-81
2022/01/29 03:42:43;;;;;;;;;8.75;7.00;;;;;;;;6330080;22;28886;-81
2022/01/29 03:45:09;;;;;;;;;15.00;9.75;;;;;;;;6330062;22;28433;-81
2022/01/29 03:47:35;;;;;;;;;12.00;9.00;;;;;;;;6329364;22;28460;-81
2022/01/29 03:50:00;;;;;;;;;12.75;8.00;;;;;;;;6300427;22;28473;-81
2022/01/29 03:52:25;;;;;;;;;15.00;11.33;;;;;;;;6329706;22;28506;-81
2022/01/29 03:54:50;;;;;;;;;16.50;11.25;;;;;;;;6329677;22;28536;-81
2022/01/29 03:57:16;;;;;;;;;20.00;14.67;;;;;;;;6300703;22;28342;-81
2022/01/29 03:59:41;;;;;;;;;14.75;10.25;;;;;;;;6328194;22;28350;-81
2022/01/29 04:02:06;;;;;;;;;16.00;9.00;;;;;;;;6301246;22;29831;-81
2022/01/29 04:04:31;;;;;;;;;15.75;9.75;;;;;;;;6329326;22;28456;-81
2022/01/29 04:07:04;;;;;;;;;11.25;8.25;;;;;;;;6329423;22;28358;-81
2022/01/29 04:09:29;;;;;;;;;14.75;12.00;;;;;;;;6335538;22;28379;-81
2022/01/29 04:11:55;;;;;;;;;18.00;12.00;;;;;;;;6330047;22;28263;-81
2022/01/29 04:14:20;;;;;;;;;12.25;8.00;;;;;;;;6301923;22;28835;-81
2022/01/29 04:16:45;;;;;;;;;13.50;10.25;;;;;;;;6328986;22;28314;-81
2022/01/29 04:19:11;;;;;;;;;13.00;11.75;;;;;;;;6329591;22;28437;-82
2022/01/29 04:21:37;;;;;;;;;11.25;6.75;;;;;;;;6301480;22;30224;-82
2022/01/29 04:24:02;;;;;;;;;12.75;10.25;;;;;;;;6330013;22;28346;-82
2022/01/29 04:26:33;;;;;;;;;11.50;10.25;;;;;;;;6329453;22;28200;-82
2022/01/29 04:28:58;;;;;;;;;13.00;12.75;;;;;;;;6328830;22;28507;-82
2022/01/29 04:31:24;;;;;;;;;13.33;9.00;;;;;;;;6329780;22;28535;-82
2022/01/29 04:33:49;;;;;;;;;16.33;13.00;;;;;;;;6329297;22;28448;-82
2022/01/29 04:36:14;;;;;;;;;16.25;10.25;;;;;;;;6328434;22;28279;-82
2022/01/29 04:38:40;;;;;;;;;16.50;8.25;;;;;;;;6327557;22;28301;-82
2022/01/29 04:41:05;;;;;;;;;14.50;9.00;;;;;;;;6329148;22;28474;-82
2022/01/29 04:43:35;;;;;;;;;19.00;13.00;;;;;;;;6301526;22;29349;-82
2022/01/29 04:46:01;;;;;;;;;13.75;11.50;;;;;;;;6328515;22;28281;-82
2022/01/29 04:48:26;;;;;;;;;10.00;2.00;;;;;;;;6301189;22;29360;-82
2022/01/29 04:50:52;;;;;;;;;13.00;11.00;;;;;;;;6329197;22;28354;-82
2022/01/29 04:53:17;;;;;;;;;15.25;9.50;;;;;;;;6330712;22;28306;-82
2022/01/29 04:55:42;;;;;;;;;10.00;10.00;;;;;;;;6330962;22;28457;-81
2022/01/29 04:58:08;;;;;;;;;11.67;9.33;;;;;;;;6330458;22;28325;-82
2022/01/29 05:00:35;;;;;;;;;13.75;9.50;;;;;;;;6329484;22;28444;-82
2022/01/29 05:03:09;;;;;;;;;12.00;9.75;;;;;;;;6300734;22;28970;-83
2022/01/29 05:05:35;;;;;;;;;12.00;10.00;;;;;;;;6328801;22;28444;-82
2022/01/29 05:08:00;;;;;;;;;10.50;10.00;;;;;;;;6329892;22;28598;-82
2022/01/29 05:10:26;;;;;;;;;9.75;9.00;;;;;;;;6330279;22;28421;-82
2022/01/29 05:15:32;;;;;;;;;8.33;6.33;;;;;;;;6330767;22;28507;-82
2022/01/29 05:28:53;;;;;;;;;14.00;10.00;;;;;;;;6329627;22;28180;-82
2022/01/29 05:31:18;;;;;;;;;12.25;9.75;;;;;;;;6301255;22;29624;-82
2022/01/29 05:33:44;;;;;;;;;13.00;10.00;;;;;;;;6329970;22;28277;-82
2022/01/29 05:36:09;;;;;;;;;19.33;15.00;;;;;;;;6329676;22;28314;-82
2022/01/29 05:38:34;;;;;;;;;12.50;10.75;;;;;;;;6329978;22;28263;-82
2022/01/29 05:41:01;;;;;;;;;13.00;12.75;;;;;;;;6330116;22;28283;-82
2022/01/29 05:43:26;;;;;;;;;13.50;11.25;;;;;;;;6330841;22;28270;-82
2022/01/29 05:45:51;;;;;;;;;21.25;12.75;;;;;;;;6301431;22;28464;-83
2022/01/29 05:48:19;;;;;;;;;14.67;13.00;;;;;;;;6302101;22;28513;-82
2022/01/29 05:50:44;;;;;;;;;23.50;11.75;;;;;;;;6301400;22;29969;-82
2022/01/29 05:53:09;;;;;;;;;13.75;9.00;;;;;;;;6302075;22;28457;-83
2022/01/29 05:55:35;;;;;;;;;20.00;13.33;;;;;;;;6330602;22;28310;-82
2022/01/29 05:58:00;;;;;;;;;13.67;13.33;;;;;;;;6329850;22;28476;-82
2022/01/29 06:00:25;;;;;;;;;12.00;12.00;;;;;;;;6301103;22;30005;-82
2022/01/29 06:03:04;;;;;;;;;20.00;14.00;;;;;;;;6301171;22;27855;-82
2022/01/29 06:05:29;;;;;;;;;17.25;10.25;;;;;;;;6301473;22;28232;-82
2022/01/29 06:07:55;;;;;;;;;6.00;6.00;;;;;;;;6330292;22;28194;-82
2022/01/29 06:10:21;;;;;;;;;14.50;13.25;;;;;;;;6329105;22;28987;-81
2022/01/29 06:12:56;;;;;;;;;13.00;13.00;;;;;;;;6328884;22;28255;-81
2022/01/29 06:15:21;;;;;;;;;21.75;14.75;;;;;;;;6330603;22;28255;-81
2022/01/29 06:17:48;;;;;;;;;19.25;14.00;;;;;;;;6328272;22;28409;-81
2022/01/29 06:20:13;;;;;;;;;16.50;12.00;;;;;;;;6329095;22;29031;-81
2022/01/29 06:22:40;;;;;;;;;18.75;14.00;;;;;;;;6301664;22;28675;-81
2022/01/29 06:25:06;;;;;;;;;15.00;10.75;;;;;;;;6301369;22;28366;-81
2022/01/29 06:27:31;;;;;;;;;13.50;12.50;;;;;;;;6329977;22;28250;-82
2022/01/29 06:29:56;;;;;;;;;19.00;13.00;;;;;;;;6330106;22;29368;-81
2022/01/29 06:32:21;;;;;;;;;20.00;13.00;;;;;;;;6301699;22;28421;-82
2022/01/29 06:34:47;;;;;;;;;14.75;10.00;;;;;;;;6328617;22;28463;-82
2022/01/29 06:37:12;;;;;;;;;17.00;10.67;;;;;;;;6328275;22;28361;-81
2022/01/29 06:39:37;;;;;;;;;13.00;10.00;;;;;;;;6299842;22;28526;-81
2022/01/29 06:42:03;;;;;;;;;13.50;10.25;;;;;;;;6330465;22;28353;-81
2022/01/29 06:44:28;;;;;;;;;13.25;10.75;;;;;;;;6329668;22;28161;-81
2022/01/29 06:46:53;;;;;;;;;11.00;10.33;;;;;;;;6330558;22;28160;-81
2022/01/29 06:49:18;;;;;;;;;15.67;12.00;;;;;;;;6299986;22;28334;-81
2022/01/29 06:51:44;;;;;;;;;11.50;10.00;;;;;;;;6329951;22;28429;-81
2022/01/29 06:54:09;;;;;;;;;12.33;10.00;;;;;;;;6330433;22;28285;-81
2022/01/29 06:56:34;;;;;;;;;16.00;10.67;;;;;;;;6330032;22;28267;-81
2022/01/29 06:58:59;;;;;;;;;13.33;10.33;;;;;;;;6329509;22;28245;-81
2022/01/29 07:01:25;;;;;;;;;13.00;8.00;;;;;;;;6330129;22;28339;-81
2022/01/29 07:03:50;;;;;;;;;15.00;12.75;;;;;;;;6328323;22;28316;-81
2022/01/29 07:06:15;;;;;;;;;17.67;9.00;;;;;;;;6301654;22;28284;-81
2022/01/29 07:08:40;;;;;;;;;8.25;8.25;;;;;;;;6329265;22;28506;-81
2022/01/29 07:11:06;;;;;;;;;9.50;7.25;;;;;;;;6329298;22;28326;-81
2022/01/29 07:13:31;;;;;;;;;10.33;9.00;;;;;;;;6301309;22;28274;-81
2022/01/29 07:15:57;;;;;;;;;14.25;8.00;;;;;;;;6300714;22;28312;-81
2022/01/29 07:18:22;;;;;;;;;7.00;7.00;;;;;;;;6329528;22;28522;-81
2022/01/29 07:20:48;;;;;;;;;15.25;7.00;;;;;;;;6328252;22;28389;-81
2022/01/29 07:23:13;;;;;;;;;4.00;3.75;;;;;;;;6300437;22;28451;-82
2022/01/29 07:25:38;;;;;;;;;10.25;6.50;;;;;;;;6328733;22;28289;-81
2022/01/29 07:28:04;;;;;;;;;11.00;8.33;;;;;;;;6301484;22;29351;-81
2022/01/29 07:30:29;;;;;;;;;11.33;7.67;;;;;;;;6301194;22;28360;-81
2022/01/29 07:32:54;;;;;;;;;8.00;7.67;;;;;;;;6330100;22;28389;-81
2022/01/29 07:35:19;;;;;;;;;9.75;7.50;;;;;;;;6328838;22;28635;-81
2022/01/29 07:37:44;;;;;;;;;7.00;7.00;;;;;;;;6329245;22;28501;-81
2022/01/29 07:40:10;;;;;;;;;8.00;7.00;;;;;;;;6329923;22;28335;-81
2022/01/29 07:42:35;;;;;;;;;10.75;7.25;;;;;;;;6328911;22;28385;-81
2022/01/29 07:45:01;;;;;;;;;7.25;5.00;;;;;;;;6300591;22;29172;-81
2022/01/29 07:47:26;;;;;;;;;12.25;5.25;;;;;;;;6328370;22;29095;-81
2022/01/29 07:49:51;;;;;;;;;7.00;5.00;;;;;;;;6300076;22;28813;-81
2022/01/29 07:52:17;;;;;;;;;9.25;6.50;;;;;;;;6301701;22;28398;-81
2022/01/29 07:54:42;;;;;;;;;8.25;7.00;;;;;;;;6328955;22;28378;-82
2022/01/29 07:57:07;;;;;;;;;8.67;5.33;;;;;;;;6329936;22;28551;-81
2022/01/29 07:59:32;;;;;;;;;8.25;5.25;;;;;;;;6327745;22;28270;-82
2022/01/29 08:01:58;;;;;;;;;7.00;4.67;;;;;;;;6330032;22;28513;-81
2022/01/29 08:04:24;;;;;;;;;7.00;4.67;;;;;;;;6328425;22;28255;-81
2022/01/29 08:06:50;;;;;;;;;7.00;4.00;;;;;;;;6329675;22;28282;-81
2022/01/29 08:09:15;;;;;;;;;8.00;3.25;;;;;;;;6298566;22;28793;-82
2022/01/29 08:11:40;;;;;;;;;8.50;5.25;;;;;;;;6326783;22;28227;-82
2022/01/29 08:14:05;;;;;;;;;6.33;3.33;;;;;;;;6328964;22;28222;-81
2022/01/29 08:16:31;;;;;;;;;4.25;3.00;;;;;;;;6329521;22;28354;-81
2022/01/29 08:18:56;;;;;;;;;7.75;4.00;;;;;;;;6330590;22;28225;-80
2022/01/29 08:21:22;;;;;;;;;4.25;3.00;;;;;;;;6330268;22;28235;-81
2022/01/29 08:23:47;;;;;;;;;2.00;2.00;;;;;;;;6329374;22;28398;-82
2022/01/29 08:26:12;;;;;;;;;5.00;2.50;;;;;;;;6328028;22;28655;-81
2022/01/29 08:28:37;;;;;;;;;3.00;2.00;;;;;;;;6328878;22;28212;-81
2022/01/29 08:31:03;;;;;;;;;3.25;2.75;;;;;;;;6329470;22;28338;-81
2022/01/29 08:33:29;;;;;;;;;2.50;2.50;;;;;;;;6301406;22;28445;-81
2022/01/29 08:35:54;;;;;;;;;3.75;2.00;;;;;;;;6300443;22;28614;-81
2022/01/29 08:38:20;;;;;;;;;3.75;2.00;;;;;;;;6328857;22;28430;-79
2022/01/29 08:40:46;;;;;;;;;3.00;2.75;;;;;;;;6328790;22;28456;-80
2022/01/29 08:43:11;;;;;;;;;2.50;1.00;;;;;;;;6329463;22;28519;-80
2022/01/29 08:45:36;;;;;;;;;3.00;3.00;;;;;;;;6328960;22;28440;-80
2022/01/29 08:48:02;;;;;;;;;2.00;2.00;;;;;;;;6329244;22;28302;-80
2022/01/29 08:50:27;;;;;;;;;4.75;2.00;;;;;;;;6329343;22;28422;-80
2022/01/29 08:52:53;;;;;;;;;4.50;2.00;;;;;;;;6329868;22;28528;-79
2022/01/29 08:55:18;;;;;;;;;2.00;2.00;;;;;;;;6329563;22;29147;-81
2022/01/29 08:57:43;;;;;;;;;3.00;2.00;;;;;;;;6328559;22;28274;-81
2022/01/29 09:00:11;;;;;;;;;3.00;3.00;;;;;;;;6301373;22;28277;-82
2022/01/29 09:02:36;;;;;;;;;3.00;3.00;;;;;;;;6327679;22;28268;-81
2022/01/29 09:05:02;;;;;;;;;4.25;2.00;;;;;;;;6328220;22;28825;-81
2022/01/29 09:07:28;;;;;;;;;2.25;0.50;;;;;;;;6328864;22;28580;-81
2022/01/29 09:09:54;;;;;;;;;2.00;2.00;;;;;;;;6328637;22;28395;-81
2022/01/29 09:12:20;;;;;;;;;2.00;1.75;;;;;;;;6300888;22;28559;-81
2022/01/29 09:14:45;;;;;;;;;2.00;2.00;;;;;;;;6300948;22;29960;-81
2022/01/29 09:17:11;;;;;;;;;2.00;2.00;;;;;;;;6301100;22;28283;-81
2022/01/29 09:19:36;;;;;;;;;2.00;2.00;;;;;;;;6300568;22;28370;-81
2022/01/29 09:22:01;;;;;;;;;2.00;2.00;;;;;;;;6300783;22;28487;-81
2022/01/29 09:24:27;;;;;;;;;3.25;2.00;;;;;;;;6300814;22;29881;-81
2022/01/29 09:26:52;;;;;;;;;2.50;2.50;;;;;;;;6329020;22;28421;-81
2022/01/29 09:29:17;;;;;;;;;2.00;2.00;;;;;;;;6300669;22;28339;-81
2022/01/29 09:31:43;;;;;;;;;3.75;2.00;;;;;;;;6328778;22;28539;-81
2022/01/29 09:34:08;;;;;;;;;4.00;3.00;;;;;;;;6299816;22;30368;-81
2022/01/29 09:36:33;;;;;;;;;3.00;1.75;;;;;;;;6300730;22;29171;-81
2022/01/29 09:38:59;;;;;;;;;1.50;0.50;;;;;;;;6329100;22;28304;-81
2022/01/29 09:41:25;;;;;;;;;2.33;2.33;;;;;;;;6330346;22;28263;-81
2022/01/29 09:43:55;;;;;;;;;3.25;2.00;;;;;;;;6302082;22;29989;-81
2022/01/29 09:46:22;;;;;;;;;2.25;2.25;;;;;;;;6329903;22;28585;-81
2022/01/29 09:48:48;;;;;;;;;4.50;3.00;;;;;;;;6301881;22;28419;-81
2022/01/29 09:51:15;;;;;;;;;3.75;2.50;;;;;;;;6329956;22;28269;-81
2022/01/29 09:53:43;;;;;;;;;2.50;2.50;;;;;;;;6330220;22;28196;-81
2022/01/29 09:56:15;;;;;;;;;4.50;2.25;;;;;;;;6330229;22;28350;-81
2022/01/29 09:58:41;;;;;;;;;4.75;3.50;;;;;;;;6301933;22;28359;-81
2022/01/29 10:01:06;;;;;;;;;4.00;3.00;;;;;;;;6330154;22;28343;-81
2022/01/29 10:03:33;;;;;;;;;6.50;4.00;;;;;;;;6329992;22;28506;-81
2022/01/29 10:06:00;;;;;;;;;2.25;2.25;;;;;;;;6330004;22;28483;-81
2022/01/29 10:08:25;;;;;;;;;3.00;3.00;;;;;;;;6328784;22;28408;-81
2022/01/29 10:10:52;;;;;;;;;7.00;5.00;;;;;;;;6299849;22;28430;-81
2022/01/29 10:13:28;;;;;;;;;10.75;3.75;;;;;;;;6327824;22;28472;-82
2022/01/29 10:16:03;;;;;;;;;3.75;3.75;;;;;;;;6327798;22;28538;-81
2022/01/29 10:18:30;;;;;;;;;3.25;3.25;;;;;;;;6327655;22;28519;-81
2022/01/29 10:21:07;;;;;;;;;5.00;3.75;;;;;;;;6327606;22;28439;-81
2022/01/29 10:23:32;;;;;;;;;8.00;4.00;;;;;;;;6327737;22;28435;-81
2022/01/29 10:25:58;;;;;;;;;5.00;3.00;;;;;;;;6327556;22;28408;-81
2022/01/29 10:28:23;;;;;;;;;4.00;3.25;;;;;;;;6299545;22;28485;-81
2022/01/29 10:30:48;;;;;;;;;6.00;3.00;;;;;;;;6327899;22;28388;-80
2022/01/29 10:33:20;;;;;;;;;3.67;3.00;;;;;;;;6326683;22;29160;-79
2022/01/29 10:35:49;;;;;;;;;5.25;4.00;;;;;;;;6327398;22;28412;-84
2022/01/29 10:38:18;;;;;;;;;4.25;3.00;;;;;;;;6327494;22;28467;-81
2022/01/29 10:40:43;;;;;;;;;3.75;3.00;;;;;;;;6299740;22;28307;-80
2022/01/29 10:43:09;;;;;;;;;4.00;4.00;;;;;;;;6327301;22;28393;-81
2022/01/29 10:45:36;;;;;;;;;3.25;3.25;;;;;;;;6329535;22;28300;-81
2022/01/29 10:48:03;;;;;;;;;1.50;1.50;;;;;;;;6329510;22;28281;-81
2022/01/29 10:50:28;;;;;;;;;3.25;3.25;;;;;;;;6328893;22;28330;-81
2022/01/29 10:52:56;;;;;;;;;3.50;3.00;;;;;;;;6329453;22;29070;-81
2022/01/29 10:55:21;;;;;;;;;3.50;3.50;;;;;;;;6329712;22;28338;-81
2022/01/29 10:57:50;;;;;;;;;6.00;3.75;;;;;;;;6301170;22;28462;-81
2022/01/29 11:00:15;;;;;;;;;4.00;2.50;;;;;;;;6329474;22;28326;-81
2022/01/29 11:02:40;;;;;;;;;3.00;3.00;;;;;;;;6329174;22;28445;-81
2022/01/29 11:05:06;;;;;;;;;1.00;1.00;;;;;;;;6300862;22;28550;-81
2022/01/29 11:07:33;;;;;;;;;3.75;2.00;;;;;;;;6329776;22;28320;-81
2022/01/29 11:10:00;;;;;;;;;4.00;4.00;;;;;;;;6329715;22;28317;-81
2022/01/29 11:12:27;;;;;;;;;2.00;2.00;;;;;;;;6329497;22;28374;-81
2022/01/29 11:14:53;;;;;;;;;4.25;2.00;;;;;;;;6328237;22;28396;-80
2022/01/29 11:17:22;;;;;;;;;4.00;3.00;;;;;;;;6329002;22;28275;-80
2022/01/29 11:19:47;;;;;;;;;3.00;3.00;;;;;;;;6329608;22;28342;-81
2022/01/29 11:22:13;;;;;;;;;4.25;3.00;;;;;;;;6329401;22;28333;-81
2022/01/29 11:24:40;;;;;;;;;3.00;3.00;;;;;;;;6301115;22;29044;-81
2022/01/29 11:27:22;;;;;;;;;2.00;2.00;;;;;;;;6329675;22;28337;-82
2022/01/29 11:29:57;;;;;;;;;4.00;2.50;;;;;;;;6329237;22;28347;-79
2022/01/29 11:32:23;;;;;;;;;3.25;2.50;;;;;;;;6328789;22;28398;-81
2022/01/29 11:35:08;;;;;;;;;3.00;2.75;;;;;;;;6329443;22;28540;-80
2022/01/29 11:37:53;;;;;;;;;3.50;3.00;;;;;;;;6329295;22;28405;-81
2022/01/29 11:40:23;;;;;;;;;2.00;2.00;;;;;;;;6329652;22;28507;-81
2022/01/29 11:42:56;;;;;;;;;6.75;2.75;;;;;;;;6329595;22;28342;-81
2022/01/29 11:45:32;;;;;;;;;3.00;3.00;;;;;;;;6329902;22;28393;-79
2022/01/29 11:47:58;;;;;;;;;3.25;2.75;;;;;;;;6301552;22;28401;-78
2022/01/29 11:50:23;;;;;;;;;2.00;2.00;;;;;;;;6329555;22;28196;-79
2022/01/29 11:53:02;;;;;;;;;3.00;3.00;;;;;;;;6329915;22;28271;-79
2022/01/29 11:55:41;;;;;;;;;4.00;3.50;;;;;;;;6329968;22;28295;-79
2022/01/29 11:58:13;;;;;;;;;5.50;5.25;;;;;;;;6329542;22;28276;-79
2022/01/29 12:00:38;;;;;;;;;4.50;3.75;;;;;;;;6329715;22;28515;-79
2022/01/29 12:03:04;;;;;;;;;5.75;3.75;;;;;;;;6329375;22;28333;-79
2022/01/29 12:05:31;;;;;;;;;4.25;3.50;;;;;;;;6329345;22;28362;-79
2022/01/29 12:08:11;;;;;;;;;5.00;4.00;;;;;;;;6329790;22;28357;-79
2022/01/29 12:10:37;;;;;;;;;3.00;3.00;;;;;;;;6329776;22;28401;-79
2022/01/29 12:13:13;;;;;;;;;4.75;3.00;;;;;;;;6330439;22;28996;-78
2022/01/29 12:15:38;;;;;;;;;6.00;5.00;;;;;;;;6303656;22;28487;-79
2022/01/29 12:18:22;;;;;;;;;3.00;3.00;;;;;;;;6329041;22;28407;-78
2022/01/29 12:20:47;;;;;;;;;5.00;5.00;;;;;;;;6329244;22;28176;-78
2022/01/29 12:23:13;;;;;;;;;5.00;3.00;;;;;;;;6329463;22;28263;-78
2022/01/29 12:25:38;;;;;;;;;6.00;3.33;;;;;;;;6329901;22;28522;-79
2022/01/29 12:28:05;;;;;;;;;7.33;5.00;;;;;;;;6329466;22;28472;-79
2022/01/29 12:30:39;;;;;;;;;8.50;3.00;;;;;;;;6328617;22;28384;-79
2022/01/29 12:33:12;;;;;;;;;2.00;2.00;;;;;;;;6328602;22;28653;-79
2022/01/29 12:35:40;;;;;;;;;3.75;3.00;;;;;;;;6329207;22;28288;-78
2022/01/29 12:38:07;;;;;;;;;3.00;3.00;;;;;;;;6329018;22;28365;-79
2022/01/29 12:40:42;;;;;;;;;3.25;3.25;;;;;;;;6329492;22;28483;-79
2022/01/29 12:43:50;;;;;;;;;4.00;3.50;;;;;;;;6329206;22;28338;-79
2022/01/29 12:46:17;;;;;;;;;6.50;4.00;;;;;;;;6229070;22;29227;-79
2022/01/29 12:48:43;;;;;;;;;5.25;5.00;;;;;;;;6328798;22;28327;-78
2022/01/29 12:51:09;;;;;;;;;2.75;2.75;;;;;;;;6328987;22;28468;-79
2022/01/29 12:53:35;;;;;;;;;3.75;3.00;;;;;;;;6329460;22;29392;-79
2022/01/29 12:56:04;;;;;;;;;3.50;3.50;;;;;;;;6329117;22;28404;-79
2022/01/29 12:58:31;;;;;;;;;2.50;2.00;;;;;;;;6301087;22;28288;-79
2022/01/29 13:01:02;;;;;;;;;3.25;3.25;;;;;;;;6328899;22;28188;-79
2022/01/29 13:03:28;;;;;;;;;3.00;3.00;;;;;;;;6329024;22;28376;-79
2022/01/29 13:05:53;;;;;;;;;4.50;3.75;;;;;;;;6328794;22;28263;-79
2022/01/29 13:08:24;;;;;;;;;3.25;3.25;;;;;;;;6328906;22;28259;-79
2022/01/29 13:10:49;;;;;;;;;4.00;4.00;;;;;;;;6300353;22;28597;-79
2022/01/29 13:13:25;;;;;;;;;5.00;5.00;;;;;;;;6329381;22;29026;-79
2022/01/29 13:15:50;;;;;;;;;4.50;4.00;;;;;;;;6330263;22;28659;-79
2022/01/29 13:18:15;;;;;;;;;4.00;4.00;;;;;;;;6301290;22;28500;-79
2022/01/29 13:20:41;;;;;;;;;3.00;3.00;;;;;;;;6329348;22;28338;-79
2022/01/29 13:23:06;;;;;;;;;2.50;2.00;;;;;;;;6329497;22;28394;-79
2022/01/29 13:25:34;;;;;;;;;3.00;3.00;;;;;;;;6329036;22;28432;-79
2022/01/29 13:28:07;;;;;;;;;2.00;2.00;;;;;;;;6328921;22;28355;-79
2022/01/29 13:30:32;;;;;;;;;3.00;3.00;;;;;;;;6329536;22;28418;-79
2022/01/29 13:33:05;;;;;;;;;3.25;3.00;;;;;;;;6329320;22;28603;-78
2022/01/29 13:35:30;;;;;;;;;3.00;3.00;;;;;;;;6329493;22;28453;-79
2022/01/29 13:38:05;;;;;;;;;5.67;3.33;;;;;;;;6301863;22;28725;-79
2022/01/29 13:40:34;;;;;;;;;6.00;5.00;;;;;;;;6330080;22;28326;-79
2022/01/29 13:43:00;;;;;;;;;7.75;5.25;;;;;;;;6330248;22;28339;-79
2022/01/29 13:45:25;;;;;;;;;5.50;3.75;;;;;;;;6330483;22;28289;-79
2022/01/29 13:48:04;;;;;;;;;3.25;3.00;;;;;;;;6302299;22;28287;-79
2022/01/29 13:50:30;;;;;;;;;4.25;3.25;;;;;;;;6301016;22;28406;-79
2022/01/29 13:53:15;;;;;;;;;5.00;4.75;;;;;;;;6329828;22;28377;-79
2022/01/29 13:55:56;;;;;;;;;7.25;5.00;;;;;;;;6330312;22;28366;-79
2022/01/29 13:58:22;;;;;;;;;3.75;3.75;;;;;;;;6302371;22;28208;-79
2022/01/29 14:00:55;;;;;;;;;5.75;4.00;;;;;;;;6330414;22;28410;-79
2022/01/29 14:03:39;;;;;;;;;5.25;3.00;;;;;;;;6330023;22;29288;-79
2022/01/29 14:06:26;;;;;;;;;5.00;3.25;;;;;;;;6330456;22;28360;-79
2022/01/29 14:09:10;;;;;;;;;4.25;3.25;;;;;;;;6330038;22;28280;-79
2022/01/29 14:11:53;;;;;;;;;9.00;5.00;;;;;;;;6330196;22;28268;-79
2022/01/29 14:14:19;;;;;;;;;5.00;3.25;;;;;;;;6330157;22;29608;-79
2022/01/29 14:16:44;;;;;;;;;7.50;5.00;;;;;;;;6330450;22;28361;-79
2022/01/29 14:19:15;;;;;;;;;4.67;3.00;;;;;;;;6329669;22;28353;-79
2022/01/29 14:21:41;;;;;;;;;3.50;3.00;;;;;;;;6329445;22;28468;-79
2022/01/29 14:24:06;;;;;;;;;3.67;3.00;;;;;;;;6329970;22;28443;-79
2022/01/29 14:26:33;;;;;;;;;4.33;4.00;;;;;;;;6330026;22;28273;-79
2022/01/29 14:28:58;;;;;;;;;4.00;2.00;;;;;;;;6329768;22;28362;-78
2022/01/29 14:31:23;;;;;;;;;5.00;2.00;;;;;;;;6329926;22;28413;-79
2022/01/29 14:33:48;;;;;;;;;6.00;3.00;;;;;;;;6329553;22;28314;-79
2022/01/29 14:36:13;;;;;;;;;4.00;2.00;;;;;;;;6302287;22;28381;-79
2022/01/29 14:38:39;;;;;;;;;3.00;3.00;;;;;;;;6329218;22;28452;-79
2022/01/29 14:41:04;;;;;;;;;3.33;3.00;;;;;;;;6330354;22;28161;-79
2022/01/29 14:43:29;;;;;;;;;3.75;3.75;;;;;;;;6330058;22;28249;-79
2022/01/29 14:45:58;;;;;;;;;5.00;3.75;;;;;;;;6330082;22;28219;-79